»·PEaware :: N228ME KSNA-KBUR

N228ME :: KSNA-KBUR

FLIGHT INFORMATION

Flight Status: Arrived
Operator: Privately registered:
United States
More flights under this callsign
Pilot: Donald B. (31773)
Aircraft: CESSNA 208 CARAVAN
(C208)
More flights by this aircraft type
Origin: KSNA John Wayne-Orange Co
United States
Destination: KBUR Bob Hope-Burbank
United States
More flights between these airports :: More routes between these airports
Route: SLI V23 POPPR SMO125R SMO SMO311R SILEX
File this flight plan on PilotEdge
Remarks: TEC route CSTP1
Altitude:
(Current/Filed)
4,000ft
Speed:
(Current/Filed)
165kts
Departed: 17-Nov-20 08:17 PM
Arrived: 17-Nov-20 08:46 PM
Distance/Time
Traveled:
40nm/0:29
Distance/Time
To Go:
Arrived

Flight Plot

Page will automatically refresh every two minutes.


Map Options




Map Legend


Flown Route
Filed Route
Departure Airport
Arrival Airport
Navaid (VOR, NDB)
Fix

Horizontal Profiles

Position Reports

Time Latitude Longitude Heading Altitude Ground
Speed
17-Nov-20 19:40 0.000408 0.013975 359 7ft 0kts
17-Nov-20 19:41 0.000408 0.013975 359 7ft 0kts
17-Nov-20 19:42 33.682069 -117.860538 130 50ft 0kts
17-Nov-20 19:43 33.682069 -117.860538 130 50ft 0kts
17-Nov-20 19:44 33.682069 -117.860538 130 50ft 0kts
17-Nov-20 19:45 33.682069 -117.860538 130 50ft 0kts
17-Nov-20 19:46 33.682069 -117.860538 130 50ft 0kts
17-Nov-20 19:47 33.682069 -117.860538 130 50ft 0kts
17-Nov-20 19:48 33.682069 -117.860538 130 50ft 0kts
17-Nov-20 19:49 33.682069 -117.860538 130 50ft 0kts
17-Nov-20 19:50 33.682069 -117.860538 130 50ft 0kts
17-Nov-20 19:51 33.682069 -117.860538 130 50ft 0kts
17-Nov-20 19:52 33.682069 -117.860538 130 50ft 0kts
17-Nov-20 19:53 33.682069 -117.860538 130 50ft 0kts
17-Nov-20 19:54 33.682259 -117.860421 317 50ft 0kts
17-Nov-20 19:55 33.682259 -117.860421 317 50ft 0kts
17-Nov-20 19:56 33.682259 -117.860421 317 50ft 0kts
17-Nov-20 19:57 33.682259 -117.860421 317 50ft 0kts
17-Nov-20 19:58 33.682259 -117.860421 317 50ft 0kts
17-Nov-20 19:59 33.682259 -117.860421 317 50ft 0kts
17-Nov-20 20:00 33.682259 -117.860421 317 50ft 0kts
17-Nov-20 20:01 33.682259 -117.860421 317 50ft 0kts
17-Nov-20 20:02 33.682259 -117.860421 317 50ft 0kts
17-Nov-20 20:03 33.682259 -117.860421 317 50ft 0kts
17-Nov-20 20:04 33.682259 -117.860421 317 50ft 0kts
17-Nov-20 20:05 33.682259 -117.860421 317 50ft 0kts
17-Nov-20 20:06 33.682259 -117.860421 317 50ft 0kts
17-Nov-20 20:08 33.682259 -117.860421 317 50ft 0kts
17-Nov-20 20:09 33.682259 -117.860421 317 50ft 0kts
17-Nov-20 20:10 33.682259 -117.860421 317 50ft 0kts
17-Nov-20 20:11 33.682259 -117.860421 317 50ft 0kts
17-Nov-20 20:12 33.682259 -117.860421 317 50ft 0kts
17-Nov-20 20:13 33.682259 -117.860421 317 50ft 0kts
17-Nov-20 20:14 33.680311 -117.862558 207 47ft 11kts
17-Nov-20 20:15 33.679941 -117.863533 301 49ft 0kts
17-Nov-20 20:16 33.680021 -117.864216 217 50ft 0kts
17-Nov-20 20:17 33.671871 -117.869323 205 165ft 106kts
17-Nov-20 20:18 33.647079 -117.899101 232 1295ft 134kts
17-Nov-20 20:19 33.622552 -117.937926 232 2154ft 151kts
17-Nov-20 20:20 33.602485 -117.978991 293 3060ft 150kts
17-Nov-20 20:21 33.630681 -118.016069 312 3858ft 160kts
17-Nov-20 20:22 33.663014 -118.056737 311 3905ft 172kts
17-Nov-20 20:23 33.695894 -118.099131 312 3897ft 174kts
17-Nov-20 20:24 33.729020 -118.141717 312 3900ft 174kts
17-Nov-20 20:25 33.762128 -118.184362 312 3902ft 174kts
17-Nov-20 20:26 33.793676 -118.225054 312 3904ft 174kts
17-Nov-20 20:27 33.826738 -118.267741 311 3906ft 174kts
17-Nov-20 20:27 33.855229 -118.301276 318 3905ft 174kts
17-Nov-20 20:29 33.898793 -118.344513 319 3907ft 174kts
17-Nov-20 20:29 33.929673 -118.375640 319 3906ft 174kts
17-Nov-20 20:31 33.973080 -118.419291 319 3907ft 174kts
17-Nov-20 20:31 34.004090 -118.450360 320 3905ft 173kts
17-Nov-20 20:32 34.043430 -118.483917 325 3907ft 173kts
17-Nov-20 20:33 34.082800 -118.515463 324 3905ft 167kts
17-Nov-20 20:35 34.127542 -118.551915 324 3903ft 165kts
17-Nov-20 20:35 34.159261 -118.577802 325 3910ft 165kts
17-Nov-20 20:36 34.196295 -118.610153 295 3880ft 166kts
17-Nov-20 20:37 34.199674 -118.664713 271 3911ft 163kts
17-Nov-20 20:38 34.179427 -118.660836 58 3712ft 170kts
17-Nov-20 20:39 34.201100 -118.614691 95 3613ft 163kts
17-Nov-20 20:40 34.200381 -118.557399 91 3067ft 175kts
17-Nov-20 20:41 34.199722 -118.507495 91 2922ft 130kts
17-Nov-20 20:42 34.199124 -118.461752 91 2275ft 140kts
17-Nov-20 20:43 34.198540 -118.417040 91 1588ft 110kts
17-Nov-20 20:44 34.198079 -118.381993 91 958ft 100kts
17-Nov-20 20:45 34.198575 -118.360273 343 721ft 0kts
17-Nov-20 20:46 34.199587 -118.360483 278 721ft 0kts

Navigation Log

Ident Type
Flight plan parsing failed, navigation log unavailable